»·PEaware :: OTA1 KBUR-KLAS

OTA1 :: KBUR-KLAS

FLIGHT INFORMATION

Flight Status: Arrived
Operator:
Oita Travel Airlines
More flights by this operator :: More flights under this callsign
Pilot: Michael N. (17127)
Aircraft: BOEING 737-600
(B736)
More flights by this aircraft type
Origin: KBUR Bob Hope-Burbank
United States
Destination: KLAS Harry Reid Intl
United States
More flights between these airports :: More routes between these airports
Route: SLAPP2 MISEN RNDRZ2
File this flight plan on PilotEdge
Remarks:
Altitude:
(Current/Filed)
27,000ft
Speed:
(Current/Filed)
250kts
Departed: 30-Jul-23 07:17 PM
Arrived: 30-Jul-23 08:07 PM
Distance/Time
Traveled:
194nm/0:50
Distance/Time
To Go:
Arrived

Flight Plot

Page will automatically refresh every two minutes.

Flight plan parsing failed; only flown route is shown


Map Options




Map Legend


Flown Route
Filed Route
Departure Airport
Arrival Airport
Navaid (VOR, NDB)
Fix

Horizontal Profiles

Position Reports

Time Latitude Longitude Heading Altitude Ground
Speed
30-Jul-23 18:53 34.196686 -118.350161 181 686ft 0kts
30-Jul-23 18:54 34.196686 -118.350161 181 686ft 0kts
30-Jul-23 18:55 34.196686 -118.350161 181 686ft 0kts
30-Jul-23 18:56 34.196686 -118.350161 181 686ft 0kts
30-Jul-23 18:57 34.196686 -118.350161 181 686ft 0kts
30-Jul-23 18:58 34.196686 -118.350161 181 686ft 0kts
30-Jul-23 18:59 34.196686 -118.350161 181 686ft 0kts
30-Jul-23 19:00 34.196686 -118.350161 181 686ft 0kts
30-Jul-23 19:01 34.196686 -118.350161 181 686ft 0kts
30-Jul-23 19:02 34.196686 -118.350161 181 686ft 0kts
30-Jul-23 19:03 34.196686 -118.350161 181 686ft 0kts
30-Jul-23 19:04 34.196686 -118.350161 181 686ft 0kts
30-Jul-23 19:05 34.196686 -118.350161 181 686ft 0kts
30-Jul-23 19:06 34.196686 -118.350161 181 686ft 0kts
30-Jul-23 19:07 34.196686 -118.350161 181 686ft 0kts
30-Jul-23 19:08 34.196686 -118.350161 181 686ft 0kts
30-Jul-23 19:08 34.196686 -118.350161 181 686ft 0kts
30-Jul-23 19:10 34.197639 -118.350146 1 690ft 17kts
30-Jul-23 19:11 34.198812 -118.354730 273 692ft 24kts
30-Jul-23 19:12 34.204286 -118.356905 346 719ft 21kts
30-Jul-23 19:13 34.210927 -118.358708 345 763ft 22kts
30-Jul-23 19:13 34.211385 -118.358906 330 767ft 0kts
30-Jul-23 19:14 34.211385 -118.358906 330 767ft 0kts
30-Jul-23 19:15 34.211818 -118.360296 182 772ft 9kts
30-Jul-23 19:17 34.183353 -118.354443 197 2393ft 163kts
30-Jul-23 19:17 34.144859 -118.394060 226 4032ft 264kts
30-Jul-23 19:18 34.093164 -118.456828 223 4016ft 264kts
30-Jul-23 19:19 34.054800 -118.526615 287 4381ft 269kts
30-Jul-23 19:20 34.114879 -118.558343 26 8488ft 281kts
30-Jul-23 19:21 34.187289 -118.507184 30 11216ft 336kts
30-Jul-23 19:22 34.270231 -118.448702 29 14623ft 354kts
30-Jul-23 19:23 34.357543 -118.387366 29 17669ft 374kts
30-Jul-23 19:24 34.453549 -118.335665 23 18998ft 383kts
30-Jul-23 19:25 34.538056 -118.257887 39 20623ft 383kts
30-Jul-23 19:26 34.618953 -118.176540 39 23522ft 389kts
30-Jul-23 19:27 34.675470 -118.072293 78 26753ft 370kts
30-Jul-23 19:28 34.693660 -117.945574 85 27004ft 392kts
30-Jul-23 19:29 34.701200 -117.813914 85 26999ft 388kts
30-Jul-23 19:30 34.707669 -117.683621 87 27002ft 387kts
30-Jul-23 19:31 34.712540 -117.552842 87 27000ft 388kts
30-Jul-23 19:32 34.735772 -117.425407 71 26998ft 389kts
30-Jul-23 19:33 34.769494 -117.300502 71 27000ft 389kts
30-Jul-23 19:34 34.802649 -117.175276 72 27001ft 387kts
30-Jul-23 19:35 34.835426 -117.050721 72 27002ft 387kts
30-Jul-23 19:36 34.868108 -116.925955 72 27001ft 387kts
30-Jul-23 19:37 34.900621 -116.801267 72 27000ft 386kts
30-Jul-23 19:38 34.944371 -116.682910 54 27003ft 381kts
30-Jul-23 19:39 35.004452 -116.577877 55 26716ft 373kts
30-Jul-23 19:40 35.059665 -116.479882 55 25228ft 342kts
30-Jul-23 19:41 35.116911 -116.382496 47 23773ft 355kts
30-Jul-23 19:42 35.185723 -116.296095 46 22765ft 356kts
30-Jul-23 19:43 35.252889 -116.207627 48 21763ft 354kts
30-Jul-23 19:44 35.317923 -116.118113 48 20772ft 348kts
30-Jul-23 19:45 35.381158 -116.031267 48 19807ft 334kts
30-Jul-23 19:46 35.442720 -115.946484 48 18889ft 335kts
30-Jul-23 19:47 35.504886 -115.860640 48 17939ft 336kts
30-Jul-23 19:48 35.566599 -115.775222 48 16986ft 328kts
30-Jul-23 19:49 35.626927 -115.692776 47 16087ft 323kts
30-Jul-23 19:50 35.687539 -115.611000 47 15179ft 321kts
30-Jul-23 19:51 35.751430 -115.538211 28 14302ft 311kts
30-Jul-23 19:52 35.827115 -115.486465 29 13418ft 311kts
30-Jul-23 19:53 35.902298 -115.433768 29 12550ft 310kts
30-Jul-23 19:54 35.976723 -115.381801 29 11595ft 299kts
30-Jul-23 19:55 36.013631 -115.301510 94 10738ft 293kts
30-Jul-23 19:56 36.007732 -115.202669 94 9812ft 274kts
30-Jul-23 19:57 36.002649 -115.114104 94 9048ft 246kts
30-Jul-23 19:58 36.000646 -115.030971 70 8128ft 235kts
30-Jul-23 19:59 36.053273 -114.990209 21 6732ft 232kts
30-Jul-23 20:00 36.112864 -114.961698 9 5496ft 228kts
30-Jul-23 20:01 36.152910 -115.009792 291 4177ft 221kts
30-Jul-23 20:02 36.172334 -115.081262 284 3900ft 205kts
30-Jul-23 20:03 36.160400 -115.126514 185 3480ft 155kts
30-Jul-23 20:04 36.123061 -115.142891 205 2865ft 146kts
30-Jul-23 20:05 36.089418 -115.162352 204 2188ft 64kts
30-Jul-23 20:06 36.082868 -115.164785 165 2188ft 0kts
30-Jul-23 20:07 36.082868 -115.164785 165 2188ft 0kts
30-Jul-23 20:08 36.081627 -115.163072 97 2186ft 14kts
30-Jul-23 20:09 36.081627 -115.157345 89 2189ft 16kts
30-Jul-23 20:10 36.079342 -115.153680 155 2187ft 17kts
30-Jul-23 20:11 36.080338 -115.148817 40 2188ft 17kts
30-Jul-23 20:12 36.081020 -115.147694 56 2186ft 0kts
30-Jul-23 20:13 36.081020 -115.147694 56 2186ft 0kts
30-Jul-23 20:14 36.081020 -115.147694 56 2186ft 0kts
30-Jul-23 20:15 36.081020 -115.147694 56 2186ft 0kts
30-Jul-23 20:16 36.081020 -115.147694 56 2186ft 0kts
30-Jul-23 20:17 36.081020 -115.147694 56 2186ft 0kts
30-Jul-23 20:18 36.081020 -115.147694 56 2186ft 0kts
30-Jul-23 20:19 36.081020 -115.147694 56 2186ft 0kts
30-Jul-23 20:20 36.081020 -115.147694 56 2186ft 0kts

Navigation Log

Ident Type
Flight plan parsing failed, navigation log unavailable